Погода Варзеландияна неделю

Минас-Жерайс, Бразилия

24 - 30 мая
  • 24мая
    Сегодня
    +16°
    +31°
    Ясно и безоблачно
    ВремяПогодаТемператураВлажностьДавлениеВетер, м/сВероятность осадков
    00:00Ясно и безоблачно+18°C62 %698 мм1.9 м/с5 %
    03:00Ясно и безоблачно+18°C68 %698 мм2.4 м/с5 %
    06:00Ясно и безоблачно+15°C78 %698 мм1.5 м/с5 %
    09:00Ясно и безоблачно+23°C64 %701 мм2.4 м/с5 %
    12:00Ясно и безоблачно+28°C43 %700 мм1.7 м/с5 %
    15:00Ясно и безоблачно+30°C36 %698 мм1.7 м/с5 %
    18:00Ясно и безоблачно+26°C47 %698 мм2.2 м/с5 %
    21:00Ясно и безоблачно+23°C56 %698 мм2.2 м/с5 %
  • 25мая
    Суббота
    +17°
    +31°
    Облачно с прояснениями
    ВремяПогодаТемператураВлажностьДавлениеВетер, м/сВероятность осадков
    00:00Ясно и безоблачно+20°C62 %698 мм1.7 м/с5 %
    03:00Небольшая облачность+18°C71 %697 мм1.7 м/с5 %
    06:00Облачно с прояснениями+16°C76 %697 мм1.6 м/с5 %
    09:00Облачно с прояснениями+24°C52 %700 мм1.6 м/с5 %
    12:00Облачно с прояснениями+28°C39 %700 мм2.1 м/с5 %
    15:00Облачно с прояснениями+30°C33 %698 мм2.8 м/с5 %
    18:00Облачно с прояснениями+27°C46 %698 мм1.1 м/с5 %
    21:00Облачно с прояснениями+22°C51 %699 мм2.6 м/с5 %
  • 26мая
    Воскресенье
    +17°
    +31°
    Ясно и безоблачно
    ВремяПогодаТемператураВлажностьДавлениеВетер, м/сВероятность осадков
    00:00Облачно с прояснениями+20°C56 %698 мм2.4 м/с5 %
    03:00Небольшая облачность+19°C59 %698 мм2.6 м/с5 %
    06:00Ясно и безоблачно+17°C69 %698 мм2.5 м/с5 %
    09:00Ясно и безоблачно+24°C61 %701 мм2.7 м/с5 %
    12:00Ясно и безоблачно+29°C40 %700 мм2.6 м/с3 %
    15:00Ясно и безоблачно+30°C35 %699 мм2.4 м/с3 %
    18:00Ясно и безоблачно+26°C46 %699 мм1.7 м/с3 %
    21:00Ясно и безоблачно+22°C54 %699 мм3.2 м/с5 %
  • 27мая
    Понедельник
    +16°
    +31°
    Ясно и безоблачно
    ВремяПогодаТемператураВлажностьДавлениеВетер, м/сВероятность осадков
    00:00Ясно и безоблачно+21°C59 %700 мм3.5 м/с5 %
    03:00Ясно и безоблачно+19°C75 %699 мм3.4 м/с5 %
    06:00Практически безоблачно+18°C89 %699 мм3.1 м/с5 %
    09:00Ясно и безоблачно+24°C70 %702 мм3.6 м/с5 %
    12:00Практически безоблачно+29°C47 %701 мм3.2 м/с5 %
    15:00Ясно и безоблачно+31°C37 %699 мм1.8 м/с5 %
    18:00Ясно и безоблачно+26°C51 %699 мм1.3 м/с5 %
    21:00Ясно и безоблачно+24°C47 %699 мм2.5 м/с5 %
Мы используем cookies
Соглашаюсь